createdAt,value
2018-05-04T00:00:58.438Z,51.59
2018-05-04T00:03:24.593Z,51.62
2018-05-04T00:05:50.733Z,51.60
2018-05-04T00:08:17.178Z,51.53
2018-05-04T00:10:43.368Z,51.54
2018-05-04T00:13:09.509Z,51.44
2018-05-04T00:15:35.689Z,51.38
2018-05-04T00:18:01.937Z,51.31
2018-05-04T00:20:28.085Z,51.21
2018-05-04T00:22:54.259Z,51.00
2018-05-04T00:25:20.408Z,50.85
2018-05-04T00:27:46.931Z,50.78
2018-05-04T00:30:13.333Z,50.75
2018-05-04T00:32:39.491Z,50.62
2018-05-04T00:35:05.666Z,50.60
2018-05-04T00:37:32.124Z,50.65
2018-05-04T00:39:58.697Z,50.71
2018-05-04T00:42:24.868Z,50.70
2018-05-04T00:44:51.020Z,50.85
2018-05-04T00:47:17.224Z,50.72
2018-05-04T00:49:43.365Z,50.71
2018-05-04T00:52:09.507Z,50.80
2018-05-04T00:54:36.061Z,50.68
2018-05-04T00:57:02.216Z,50.82
2018-05-04T00:59:28.364Z,50.73
2018-05-04T01:01:54.814Z,50.78
2018-05-04T01:04:20.974Z,50.70
2018-05-04T01:06:47.146Z,50.82
2018-05-04T01:09:13.290Z,51.06
2018-05-04T01:11:39.483Z,50.96
2018-05-04T01:14:05.954Z,50.88
2018-05-04T01:16:32.100Z,50.82
2018-05-04T01:18:58.265Z,50.86
2018-05-04T01:21:24.744Z,50.71
2018-05-04T01:23:50.908Z,50.68
2018-05-04T01:26:17.080Z,50.62
2018-05-04T01:28:43.235Z,50.54
2018-05-04T01:31:09.453Z,50.57
2018-05-04T01:33:35.592Z,50.56
2018-05-04T01:36:01.726Z,50.50
2018-05-04T01:38:27.925Z,50.48
2018-05-04T01:40:54.075Z,50.51
2018-05-04T01:43:20.243Z,50.37
2018-05-04T01:45:46.513Z,50.38
2018-05-04T01:48:12.667Z,50.22
2018-05-04T01:50:39.201Z,50.13
2018-05-04T01:53:05.361Z,50.10
2018-05-04T01:55:31.496Z,50.11
2018-05-04T01:57:57.692Z,50.02
2018-05-04T02:00:24.085Z,50.06
2018-05-04T02:02:50.225Z,49.94
2018-05-04T02:05:16.461Z,49.86
2018-05-04T02:07:42.643Z,49.88
2018-05-04T02:10:09.201Z,49.88
2018-05-04T02:12:35.362Z,49.94
2018-05-04T02:15:01.503Z,49.86
2018-05-04T02:17:27.655Z,49.71
2018-05-04T02:19:53.806Z,49.70
2018-05-04T02:22:20.010Z,49.58
2018-05-04T02:24:46.146Z,49.53
2018-05-04T02:27:12.289Z,49.45
2018-05-04T02:29:38.461Z,49.16
2018-05-04T02:32:04.656Z,49.13
2018-05-04T02:34:31.083Z,49.18
2018-05-04T02:36:57.220Z,49.12
2018-05-04T02:39:23.419Z,49.07
2018-05-04T02:41:49.965Z,49.10
2018-05-04T02:44:16.133Z,49.03
2018-05-04T02:46:42.287Z,49.02
2018-05-04T02:49:08.563Z,48.96
2018-05-04T02:51:34.710Z,48.90
2018-05-04T02:54:00.859Z,48.84
2018-05-04T02:56:27.037Z,48.80
2018-05-04T02:58:53.178Z,48.73
2018-05-04T03:01:19.383Z,48.66
2018-05-04T03:03:45.517Z,48.63
2018-05-04T03:06:11.805Z,48.56
2018-05-04T03:08:37.957Z,48.50
2018-05-04T03:11:04.110Z,48.55
2018-05-04T03:13:30.521Z,48.49
2018-05-04T03:15:56.669Z,48.46
2018-05-04T03:18:22.872Z,48.45
2018-05-04T03:20:49.303Z,48.42
2018-05-04T03:23:15.437Z,48.37
2018-05-04T03:25:41.865Z,48.33
2018-05-04T03:28:07.997Z,48.33
2018-05-04T03:30:34.163Z,48.26
2018-05-04T03:33:00.648Z,48.19
2018-05-04T03:35:26.804Z,48.40
2018-05-04T03:37:53.004Z,48.30
2018-05-04T03:40:19.443Z,48.29
2018-05-04T03:42:45.623Z,48.23
2018-05-04T03:45:11.769Z,48.31
2018-05-04T03:47:38.226Z,48.11
2018-05-04T03:50:04.361Z,48.20
2018-05-04T03:52:30.536Z,48.21
2018-05-04T03:54:56.667Z,48.42
2018-05-04T03:57:35.434Z,48.38
2018-05-04T04:00:13.702Z,48.33
2018-05-04T04:02:52.118Z,48.17
2018-05-04T04:05:18.267Z,47.75
2018-05-04T04:07:44.454Z,47.47
2018-05-04T04:10:10.716Z,47.24
2018-05-04T04:12:36.955Z,47.07
2018-05-04T04:15:03.136Z,46.85
2018-05-04T04:17:29.597Z,46.67
2018-05-04T04:19:55.826Z,46.61
2018-05-04T04:22:21.999Z,46.57
2018-05-04T04:24:48.414Z,46.44
2018-05-04T04:27:16.916Z,46.40
2018-05-04T04:29:43.082Z,46.29
2018-05-04T04:32:09.221Z,46.10
2018-05-04T04:34:35.410Z,46.11
2018-05-04T04:37:01.550Z,46.35
2018-05-04T04:39:27.719Z,46.47
2018-05-04T04:41:53.852Z,46.56
2018-05-04T04:44:20.014Z,46.60
2018-05-04T04:46:46.206Z,46.59
2018-05-04T04:49:12.361Z,46.57
2018-05-04T04:51:38.519Z,48.63
2018-05-04T04:54:05.015Z,49.74
2018-05-04T04:56:31.306Z,49.13
2018-05-04T04:58:57.963Z,48.95
2018-05-04T05:01:24.121Z,48.78
2018-05-04T05:03:51.035Z,48.30
2018-05-04T05:06:17.429Z,47.91
2018-05-04T05:08:43.573Z,47.60
2018-05-04T05:11:10.165Z,47.61
2018-05-04T05:13:36.314Z,47.61
2018-05-04T05:16:02.462Z,47.07
2018-05-04T05:18:28.917Z,46.47
2018-05-04T05:20:55.088Z,46.13
2018-05-04T05:23:21.254Z,46.12
2018-05-04T05:25:47.486Z,45.91
2018-05-04T05:28:13.714Z,45.93
2018-05-04T05:30:39.882Z,46.06
2018-05-04T05:33:06.280Z,46.23
2018-05-04T05:35:32.513Z,46.31
2018-05-04T05:37:58.654Z,46.27
2018-05-04T05:40:24.820Z,46.30
2018-05-04T05:42:51.293Z,46.35
2018-05-04T05:45:17.632Z,46.80
2018-05-04T05:47:43.858Z,46.90
2018-05-04T05:50:10.104Z,46.78
2018-05-04T05:52:36.297Z,46.81
2018-05-04T05:55:02.462Z,46.88
2018-05-04T05:57:28.638Z,46.87
2018-05-04T05:59:54.819Z,46.91
2018-05-04T06:02:20.965Z,46.83
2018-05-04T06:04:47.256Z,46.75
2018-05-04T06:07:13.678Z,46.69
2018-05-04T06:09:39.821Z,46.88
2018-05-04T06:12:06.039Z,46.84
2018-05-04T06:14:32.464Z,46.62
2018-05-04T06:16:58.757Z,46.54
2018-05-04T06:19:24.921Z,46.41
2018-05-04T06:21:51.221Z,46.27
2018-05-04T06:24:17.509Z,46.14
2018-05-04T06:26:43.657Z,46.00
2018-05-04T06:29:10.246Z,45.94
2018-05-04T06:31:36.449Z,45.79
2018-05-04T06:34:02.603Z,45.75
2018-05-04T06:36:28.869Z,45.74
2018-05-04T06:38:55.294Z,45.65
2018-05-04T06:41:21.695Z,45.53
2018-05-04T06:43:48.434Z,45.48
2018-05-04T06:46:14.709Z,45.40
2018-05-04T06:48:40.967Z,45.31
2018-05-04T06:51:07.073Z,45.24
2018-05-04T06:53:33.404Z,45.20
2018-05-04T06:55:59.567Z,45.12
2018-05-04T06:58:25.730Z,45.01
2018-05-04T07:00:51.948Z,44.92
2018-05-04T07:03:18.122Z,44.93
2018-05-04T07:05:44.283Z,44.91
2018-05-04T07:08:10.474Z,44.84
2018-05-04T07:10:36.621Z,44.82
2018-05-04T07:13:02.911Z,44.77
2018-05-04T07:15:29.396Z,44.74
2018-05-04T07:17:55.542Z,44.68
2018-05-04T07:20:21.748Z,44.68
2018-05-04T07:22:48.320Z,44.67
2018-05-04T07:25:14.524Z,44.65
2018-05-04T07:27:40.687Z,44.67
2018-05-04T07:30:06.953Z,44.65
2018-05-04T07:32:33.097Z,44.62
2018-05-04T07:34:59.254Z,44.66
2018-05-04T07:37:25.433Z,44.69
2018-05-04T07:39:51.600Z,44.75
2018-05-04T07:42:17.814Z,44.74
2018-05-04T07:44:43.989Z,44.80
2018-05-04T07:47:10.164Z,44.76
2018-05-04T07:49:36.465Z,44.72
2018-05-04T07:52:02.645Z,44.71
2018-05-04T07:54:28.876Z,44.81
2018-05-04T07:56:55.028Z,44.90
2018-05-04T07:59:21.478Z,44.96
2018-05-04T08:01:47.647Z,45.04
2018-05-04T08:04:13.819Z,45.04
2018-05-04T08:06:40.289Z,45.03
2018-05-04T08:09:06.481Z,45.03
2018-05-04T08:11:32.984Z,45.06
2018-05-04T08:13:59.145Z,45.06
2018-05-04T08:16:25.292Z,45.02
2018-05-04T08:18:51.600Z,44.98
2018-05-04T08:21:17.765Z,45.01
2018-05-04T08:23:44.196Z,45.03
2018-05-04T08:26:10.377Z,45.03
2018-05-04T08:28:36.545Z,45.04
2018-05-04T08:31:02.770Z,45.07
2018-05-04T08:33:28.985Z,45.07
2018-05-04T08:35:55.183Z,45.09
2018-05-04T08:38:21.391Z,45.03
2018-05-04T08:40:47.676Z,45.13
2018-05-04T08:43:13.828Z,45.20
2018-05-04T08:45:39.989Z,45.21
2018-05-04T08:48:06.152Z,45.13
2018-05-04T08:50:32.448Z,45.15
2018-05-04T08:52:58.613Z,45.14
2018-05-04T08:55:25.018Z,45.15
2018-05-04T08:57:51.214Z,45.12
2018-05-04T09:00:17.426Z,45.12
2018-05-04T09:02:43.583Z,45.11
2018-05-04T09:05:09.858Z,45.09
2018-05-04T09:07:35.954Z,45.08
2018-05-04T09:10:02.115Z,45.09
2018-05-04T09:12:28.343Z,45.06
2018-05-04T09:14:54.485Z,45.04
2018-05-04T09:17:20.666Z,45.02
2018-05-04T09:19:46.883Z,45.02
2018-05-04T09:22:13.066Z,45.02
2018-05-04T09:24:39.255Z,45.02
2018-05-04T09:27:05.662Z,45.00
2018-05-04T09:29:31.826Z,44.96
2018-05-04T09:31:58.330Z,44.93
2018-05-04T09:34:24.516Z,44.86
2018-05-04T09:36:50.673Z,44.83
2018-05-04T09:39:16.873Z,44.82
2018-05-04T09:41:43.040Z,44.82
2018-05-04T09:44:09.250Z,44.82
2018-05-04T09:46:35.432Z,44.82
2018-05-04T09:49:01.923Z,44.78
2018-05-04T09:51:28.104Z,44.77
2018-05-04T09:53:54.257Z,44.77
2018-05-04T09:56:20.458Z,44.77
2018-05-04T09:58:46.997Z,44.79
2018-05-04T10:01:13.140Z,44.76
2018-05-04T10:03:39.339Z,44.64
2018-05-04T10:06:05.546Z,44.57
2018-05-04T10:08:31.736Z,44.58
2018-05-04T10:10:57.912Z,44.54
2018-05-04T10:13:24.073Z,44.56
2018-05-04T10:15:50.282Z,44.61
2018-05-04T10:18:16.456Z,44.61
2018-05-04T10:20:42.628Z,44.60
2018-05-04T10:23:09.075Z,44.55
2018-05-04T10:25:35.264Z,44.51
2018-05-04T10:28:01.425Z,44.49
2018-05-04T10:30:27.589Z,44.50
2018-05-04T10:32:53.945Z,44.42
2018-05-04T10:35:20.123Z,44.33
2018-05-04T10:37:46.313Z,44.31
2018-05-04T10:40:12.577Z,44.34
2018-05-04T10:42:38.726Z,44.36
2018-05-04T10:45:04.899Z,44.27
2018-05-04T10:47:31.248Z,44.31
2018-05-04T10:49:57.444Z,44.49
2018-05-04T10:52:23.645Z,44.49
2018-05-04T10:54:49.849Z,44.33
2018-05-04T10:57:16.082Z,44.30
2018-05-04T10:59:42.290Z,44.26
2018-05-04T11:02:08.955Z,44.25
2018-05-04T11:04:35.117Z,44.24
2018-05-04T11:07:01.509Z,44.24
2018-05-04T11:09:27.746Z,44.22
2018-05-04T11:11:53.919Z,44.16
2018-05-04T11:14:20.124Z,44.16
2018-05-04T11:16:46.317Z,44.14
2018-05-04T11:19:12.824Z,44.11
2018-05-04T11:21:39.044Z,44.08
2018-05-04T11:24:05.485Z,44.04
2018-05-04T11:26:31.670Z,44.00
2018-05-04T11:28:57.812Z,43.98
2018-05-04T11:31:23.999Z,43.96
2018-05-04T11:33:50.193Z,43.94
2018-05-04T11:36:16.504Z,43.93
2018-05-04T11:38:42.762Z,43.90
2018-05-04T11:41:08.931Z,43.88
2018-05-04T11:43:35.145Z,43.89
2018-05-04T11:46:01.327Z,43.87
2018-05-04T11:48:27.482Z,43.84
2018-05-04T11:50:53.903Z,43.81
2018-05-04T11:53:20.062Z,43.80
2018-05-04T11:55:46.253Z,43.77
2018-05-04T11:58:12.407Z,43.75
2018-05-04T12:00:38.545Z,43.71
2018-05-04T12:03:04.708Z,43.67
2018-05-04T12:05:30.846Z,43.63
2018-05-04T12:07:57.050Z,43.61
2018-05-04T12:10:23.251Z,43.59
2018-05-04T12:12:49.950Z,43.57
2018-05-04T12:15:16.376Z,43.55
2018-05-04T12:17:42.544Z,43.54
2018-05-04T12:20:08.724Z,43.53
2018-05-04T12:22:35.113Z,43.53
2018-05-04T12:25:01.274Z,43.59
2018-05-04T12:27:27.725Z,43.44
2018-05-04T12:29:53.913Z,43.44
2018-05-04T12:32:20.177Z,43.47
2018-05-04T12:34:46.305Z,43.39
2018-05-04T12:37:12.555Z,43.38
2018-05-04T12:39:38.649Z,43.25
2018-05-04T12:42:04.822Z,43.00
2018-05-04T12:44:31.064Z,42.67
2018-05-04T12:46:57.222Z,42.65
2018-05-04T12:49:23.413Z,42.53
2018-05-04T12:51:49.590Z,42.66
2018-05-04T12:54:15.723Z,42.72
2018-05-04T12:56:42.028Z,42.68
2018-05-04T12:59:08.198Z,42.78
2018-05-04T13:01:34.354Z,42.80
2018-05-04T13:04:00.536Z,42.92
2018-05-04T13:06:26.774Z,43.01
2018-05-04T13:08:52.933Z,43.08
2018-05-04T13:11:19.069Z,43.08
2018-05-04T13:13:45.648Z,43.15
2018-05-04T13:16:12.217Z,43.23
2018-05-04T13:18:38.354Z,43.30
2018-05-04T13:21:04.489Z,43.31
2018-05-04T13:23:30.703Z,43.40
2018-05-04T13:25:56.823Z,43.42
2018-05-04T13:28:22.958Z,43.50
2018-05-04T13:30:49.150Z,43.54
2018-05-04T13:33:15.293Z,43.53
2018-05-04T13:35:41.705Z,43.58
2018-05-04T13:38:07.917Z,43.57
2018-05-04T13:40:34.464Z,43.63
2018-05-04T13:43:00.653Z,43.65
2018-05-04T13:45:27.042Z,43.67
2018-05-04T13:47:53.208Z,43.58
2018-05-04T13:50:19.336Z,43.53
2018-05-04T13:52:45.808Z,43.57
2018-05-04T13:55:11.964Z,43.66
2018-05-04T13:57:38.121Z,43.67
2018-05-04T14:00:04.257Z,43.67
2018-05-04T14:02:30.476Z,43.70
2018-05-04T14:04:56.649Z,43.68
2018-05-04T14:07:22.816Z,43.57
2018-05-04T14:09:49.310Z,43.55
2018-05-04T14:12:15.745Z,43.49
2018-05-04T14:14:41.917Z,43.45
2018-05-04T14:17:08.035Z,43.30
2018-05-04T14:19:34.566Z,43.11
2018-05-04T14:22:00.701Z,43.00
2018-05-04T14:24:26.848Z,42.79
2018-05-04T14:26:53.008Z,42.52
2018-05-04T14:29:19.192Z,41.99
2018-05-04T14:31:45.350Z,40.80
2018-05-04T14:34:11.491Z,38.02
2018-05-04T14:36:37.769Z,35.17
2018-05-04T14:39:04.016Z,33.52
2018-05-04T14:41:30.151Z,32.57
2018-05-04T14:43:56.427Z,32.05
2018-05-04T14:46:22.835Z,31.63
2018-05-04T14:48:48.972Z,31.31
2018-05-04T14:51:15.142Z,31.07
2018-05-04T14:53:41.305Z,30.87
2018-05-04T14:56:07.487Z,30.73
2018-05-04T14:58:33.755Z,30.76
2018-05-04T15:00:59.833Z,30.99
2018-05-04T15:03:26.364Z,31.36
2018-05-04T15:05:52.495Z,31.71
2018-05-04T15:08:18.621Z,33.19
2018-05-04T15:10:45.248Z,34.88
2018-05-04T15:13:11.654Z,35.60
2018-05-04T15:15:38.081Z,35.54
2018-05-04T15:18:04.295Z,34.94
2018-05-04T15:20:30.705Z,35.42
2018-05-04T15:22:56.870Z,36.96
2018-05-04T15:25:23.158Z,37.48
2018-05-04T15:27:49.306Z,37.10
2018-05-04T15:30:15.447Z,36.33
2018-05-04T15:32:41.630Z,34.48
2018-05-04T15:35:07.764Z,34.55
2018-05-04T15:37:34.261Z,35.96
2018-05-04T15:40:00.475Z,37.06
2018-05-04T15:42:26.563Z,37.90
2018-05-04T15:44:52.741Z,38.48
2018-05-04T15:47:18.872Z,39.08
2018-05-04T15:49:45.272Z,39.51
2018-05-04T15:52:11.400Z,39.58
2018-05-04T15:54:37.842Z,39.86
2018-05-04T15:57:04.022Z,40.08
2018-05-04T15:59:30.230Z,39.98
2018-05-04T16:01:56.371Z,40.53
2018-05-04T16:04:22.545Z,40.85
2018-05-04T16:06:48.722Z,40.97
2018-05-04T16:09:15.203Z,41.12
2018-05-04T16:11:41.374Z,41.13
2018-05-04T16:14:07.502Z,40.65
2018-05-04T16:16:40.782Z,40.05
2018-05-04T16:19:07.141Z,39.68
2018-05-04T16:21:33.282Z,40.06
2018-05-04T16:23:59.432Z,40.70
2018-05-04T16:26:25.580Z,41.12
2018-05-04T16:28:51.848Z,41.09
2018-05-04T16:31:17.949Z,41.19
2018-05-04T16:33:44.105Z,41.40
2018-05-04T16:36:10.322Z,41.50
2018-05-04T16:38:36.438Z,41.69
2018-05-04T16:41:03.237Z,41.75
2018-05-04T16:43:29.371Z,41.84
2018-05-04T16:45:55.544Z,41.71
2018-05-04T16:48:27.718Z,41.70
2018-05-04T16:50:53.848Z,41.76
2018-05-04T16:53:20.052Z,41.70
2018-05-04T16:55:46.235Z,41.59
2018-05-04T16:58:12.669Z,41.56
2018-05-04T17:00:38.869Z,41.64
2018-05-04T17:03:05.079Z,41.61
2018-05-04T17:05:31.252Z,41.37
2018-05-04T17:07:57.444Z,41.24
2018-05-04T17:10:23.578Z,41.01
2018-05-04T17:12:49.797Z,40.93
2018-05-04T17:15:15.970Z,40.84
2018-05-04T17:17:42.180Z,40.69
2018-05-04T17:20:08.388Z,40.57
2018-05-04T17:22:34.550Z,40.63
2018-05-04T17:25:00.702Z,40.52
2018-05-04T17:27:26.928Z,40.55
2018-05-04T17:29:53.110Z,40.55
2018-05-04T17:32:19.551Z,40.52
2018-05-04T17:34:45.718Z,40.58
2018-05-04T17:37:11.892Z,40.59
2018-05-04T17:39:38.040Z,40.63
2018-05-04T17:42:04.159Z,40.63
2018-05-04T17:44:30.361Z,40.69
2018-05-04T17:46:56.828Z,40.75
2018-05-04T17:49:22.969Z,40.91
2018-05-04T17:51:49.138Z,40.92
2018-05-04T17:54:15.611Z,41.02
2018-05-04T17:56:41.779Z,41.11
2018-05-04T17:59:08.171Z,41.20
2018-05-04T18:01:34.333Z,41.26
2018-05-04T18:04:00.461Z,41.37
2018-05-04T18:06:26.658Z,41.41
2018-05-04T18:08:52.784Z,41.55
2018-05-04T18:11:18.919Z,41.64
2018-05-04T18:13:45.232Z,41.69
2018-05-04T18:16:11.375Z,41.80
2018-05-04T18:18:37.505Z,41.98
2018-05-04T18:21:03.719Z,42.17
2018-05-04T18:23:29.859Z,42.18
2018-05-04T18:25:55.989Z,42.30
2018-05-04T18:28:22.161Z,42.47
2018-05-04T18:30:48.301Z,42.63
2018-05-04T18:33:14.591Z,42.84
2018-05-04T18:35:40.728Z,43.07
2018-05-04T18:38:06.861Z,43.29
2018-05-04T18:40:33.037Z,43.47
2018-05-04T18:42:59.329Z,43.61
2018-05-04T18:45:25.457Z,43.73
2018-05-04T18:47:51.626Z,43.83
2018-05-04T18:50:17.817Z,43.85
2018-05-04T18:52:43.981Z,43.97
2018-05-04T18:55:10.113Z,44.11
2018-05-04T18:57:36.294Z,44.21
2018-05-04T19:00:02.493Z,44.30
2018-05-04T19:02:34.778Z,44.14
2018-05-04T19:05:00.943Z,44.15
2018-05-04T19:07:27.073Z,44.21
2018-05-04T19:09:53.353Z,44.37
2018-05-04T19:12:19.486Z,44.57
2018-05-04T19:14:45.618Z,44.70
2018-05-04T19:17:11.773Z,44.87
2018-05-04T19:19:37.934Z,45.01
2018-05-04T19:22:04.089Z,45.15
2018-05-04T19:24:30.352Z,45.21
2018-05-04T19:26:56.494Z,45.35
2018-05-04T19:29:22.931Z,45.46
2018-05-04T19:31:49.105Z,45.60
2018-05-04T19:34:15.266Z,45.69
2018-05-04T19:36:41.431Z,45.81
2018-05-04T19:39:07.576Z,45.94
2018-05-04T19:41:33.820Z,46.00
2018-05-04T19:44:00.020Z,46.12
2018-05-04T19:46:26.510Z,46.20
2018-05-04T19:48:52.632Z,46.22
2018-05-04T19:51:18.765Z,46.33
2018-05-04T19:53:44.926Z,46.38
2018-05-04T19:56:11.066Z,46.40
2018-05-04T19:58:37.552Z,46.46
2018-05-04T20:01:03.691Z,46.49
2018-05-04T20:03:29.834Z,46.58
2018-05-04T20:05:55.992Z,46.65
2018-05-04T20:08:22.130Z,46.74
2018-05-04T20:10:48.409Z,46.78
2018-05-04T20:13:14.559Z,46.86
2018-05-04T20:15:40.693Z,46.94
2018-05-04T20:18:06.919Z,47.05
2018-05-04T20:20:33.071Z,47.12
2018-05-04T20:22:59.253Z,47.18
2018-05-04T20:25:25.394Z,47.25
2018-05-04T20:27:51.520Z,47.30
2018-05-04T20:30:17.685Z,47.35
2018-05-04T20:32:43.849Z,47.37
2018-05-04T20:35:10.029Z,47.41
2018-05-04T20:37:36.191Z,47.39
2018-05-04T20:40:02.710Z,47.43
2018-05-04T20:42:28.908Z,47.51
2018-05-04T20:44:55.214Z,47.57
2018-05-04T20:47:21.361Z,47.60
2018-05-04T20:49:47.488Z,47.63
2018-05-04T20:52:13.761Z,47.72
2018-05-04T20:54:39.911Z,47.73
2018-05-04T20:57:06.048Z,47.77
2018-05-04T20:59:32.274Z,47.78
2018-05-04T21:01:58.721Z,47.79
2018-05-04T21:04:24.910Z,47.84
2018-05-04T21:06:51.217Z,47.90
2018-05-04T21:09:17.404Z,47.93
2018-05-04T21:11:43.876Z,47.99
2018-05-04T21:14:10.075Z,47.98
2018-05-04T21:16:36.229Z,48.00
2018-05-04T21:19:02.407Z,48.04
2018-05-04T21:21:28.548Z,48.00
2018-05-04T21:23:54.735Z,47.95
2018-05-04T21:26:20.872Z,47.95
2018-05-04T21:28:47.094Z,48.02
2018-05-04T21:31:13.249Z,48.08
2018-05-04T21:33:39.534Z,48.11
2018-05-04T21:36:05.676Z,48.15
2018-05-04T21:38:31.908Z,48.14
2018-05-04T21:40:58.032Z,48.15
2018-05-04T21:43:24.174Z,48.17
2018-05-04T21:45:50.382Z,48.18
2018-05-04T21:48:16.530Z,48.22
2018-05-04T21:50:42.718Z,48.27
2018-05-04T21:53:08.908Z,48.28
2018-05-04T21:55:35.114Z,48.25
2018-05-04T21:58:01.403Z,48.26
2018-05-04T22:00:27.548Z,48.31
2018-05-04T22:02:53.693Z,48.32
2018-05-04T22:05:19.894Z,48.41
2018-05-04T22:07:46.037Z,48.46
2018-05-04T22:10:12.198Z,48.50
2018-05-04T22:12:38.363Z,48.49
2018-05-04T22:15:04.562Z,48.52
2018-05-04T22:17:30.759Z,48.57
2018-05-04T22:19:56.955Z,48.59
2018-05-04T22:22:23.110Z,48.68
2018-05-04T22:24:49.256Z,48.78
2018-05-04T22:27:15.530Z,48.81
2018-05-04T22:29:41.676Z,48.82
2018-05-04T22:32:07.880Z,48.83
2018-05-04T22:34:34.299Z,48.82
2018-05-04T22:37:00.445Z,48.79
2018-05-04T22:39:27.069Z,48.82
2018-05-04T22:41:53.210Z,48.87
2018-05-04T22:44:19.364Z,48.90
2018-05-04T22:46:45.545Z,48.87
2018-05-04T22:49:11.688Z,48.88
2018-05-04T22:51:37.957Z,48.92
2018-05-04T22:54:04.145Z,49.02
2018-05-04T22:56:30.341Z,49.04
2018-05-04T22:58:56.486Z,49.04
2018-05-04T23:01:22.633Z,49.03
2018-05-04T23:03:48.814Z,49.04
2018-05-04T23:06:15.274Z,49.11
2018-05-04T23:08:41.908Z,49.18
2018-05-04T23:11:08.062Z,49.23
2018-05-04T23:13:34.214Z,49.29
2018-05-04T23:16:00.380Z,49.31
2018-05-04T23:18:26.581Z,49.25
2018-05-04T23:20:52.719Z,49.13
2018-05-04T23:23:18.869Z,49.11
2018-05-04T23:25:45.081Z,49.12
2018-05-04T23:28:11.221Z,49.08
2018-05-04T23:30:37.393Z,49.11
2018-05-04T23:33:03.988Z,49.16
2018-05-04T23:35:30.177Z,49.15
2018-05-04T23:37:56.648Z,49.15
2018-05-04T23:40:23.076Z,49.13
2018-05-04T23:42:49.224Z,49.17
2018-05-04T23:45:15.394Z,49.17
2018-05-04T23:47:41.805Z,49.21
2018-05-04T23:50:07.958Z,49.19
2018-05-04T23:52:34.130Z,49.18
2018-05-04T23:55:00.413Z,49.20
2018-05-04T23:57:26.880Z,49.24
2018-05-04T23:59:53.034Z,49.22
